sensor_id;sensor_type;location;lat;lon;timestamp;pressure;altitude;pressure_sealevel;temperature;humidity
6668;BME280;3370;47.712;9.082;2023-03-25T00:01:10;96692.03;;;7.64;94.96
6668;BME280;3370;47.712;9.082;2023-03-25T00:03:39;96689.53;;;7.63;95.97
6668;BME280;3370;47.712;9.082;2023-03-25T00:06:15;96695.84;;;7.54;89.74
6668;BME280;3370;47.712;9.082;2023-03-25T00:08:41;96683.47;;;7.43;94.06
6668;BME280;3370;47.712;9.082;2023-03-25T00:11:07;96687.94;;;7.38;93.02
6668;BME280;3370;47.712;9.082;2023-03-25T00:13:34;96670.50;;;7.26;94.12
6668;BME280;3370;47.712;9.082;2023-03-25T00:16:01;96655.59;;;7.14;93.36
6668;BME280;3370;47.712;9.082;2023-03-25T00:18:29;96659.78;;;7.16;91.83
6668;BME280;3370;47.712;9.082;2023-03-25T00:21:00;96653.94;;;7.13;94.09
6668;BME280;3370;47.712;9.082;2023-03-25T00:23:27;96654.16;;;7.06;93.68
6668;BME280;3370;47.712;9.082;2023-03-25T00:25:53;96647.59;;;6.99;93.00
6668;BME280;3370;47.712;9.082;2023-03-25T00:28:30;96646.38;;;7.09;91.86
6668;BME280;3370;47.712;9.082;2023-03-25T00:31:03;96641.44;;;7.05;91.90
6668;BME280;3370;47.712;9.082;2023-03-25T00:33:29;96644.03;;;7.03;91.92
6668;BME280;3370;47.712;9.082;2023-03-25T00:35:56;96635.25;;;7.10;91.31
6668;BME280;3370;47.712;9.082;2023-03-25T00:38:30;96649.88;;;7.07;91.28
6668;BME280;3370;47.712;9.082;2023-03-25T00:41:20;96628.50;;;7.09;90.55
6668;BME280;3370;47.712;9.082;2023-03-25T00:43:55;96643.47;;;7.19;89.59
6668;BME280;3370;47.712;9.082;2023-03-25T00:46:23;96653.09;;;7.34;87.00
6668;BME280;3370;47.712;9.082;2023-03-25T00:48:51;96663.13;;;7.40;86.68
6668;BME280;3370;47.712;9.082;2023-03-25T00:51:19;96662.16;;;7.43;88.19
6668;BME280;3370;47.712;9.082;2023-03-25T00:53:49;96679.00;;;7.48;86.74
6668;BME280;3370;47.712;9.082;2023-03-25T00:56:18;96672.94;;;7.51;86.81
6668;BME280;3370;47.712;9.082;2023-03-25T00:58:44;96681.44;;;7.52;87.84
6668;BME280;3370;47.712;9.082;2023-03-25T01:01:18;96680.41;;;7.56;87.73
6668;BME280;3370;47.712;9.082;2023-03-25T01:03:49;96671.75;;;7.60;88.37
6668;BME280;3370;47.712;9.082;2023-03-25T01:06:33;96675.25;;;7.57;89.71
6668;BME280;3370;47.712;9.082;2023-03-25T01:09:06;96672.44;;;7.41;91.22
6668;BME280;3370;47.712;9.082;2023-03-25T01:11:33;96671.00;;;7.34;93.21
6668;BME280;3370;47.712;9.082;2023-03-25T01:14:00;96665.91;;;7.34;92.79
6668;BME280;3370;47.712;9.082;2023-03-25T01:16:28;96668.66;;;7.29;92.93
6668;BME280;3370;47.712;9.082;2023-03-25T01:18:55;96675.84;;;7.20;94.75
6668;BME280;3370;47.712;9.082;2023-03-25T01:21:21;96671.72;;;7.16;94.24
6668;BME280;3370;47.712;9.082;2023-03-25T01:23:47;96666.72;;;7.13;96.13
6668;BME280;3370;47.712;9.082;2023-03-25T01:26:13;96663.81;;;7.00;95.85
6668;BME280;3370;47.712;9.082;2023-03-25T01:28:43;96663.13;;;6.95;96.20
6668;BME280;3370;47.712;9.082;2023-03-25T01:31:13;96645.19;;;6.96;96.43
6668;BME280;3370;47.712;9.082;2023-03-25T01:33:39;96645.19;;;6.96;92.96
6668;BME280;3370;47.712;9.082;2023-03-25T01:36:06;96644.19;;;7.00;94.68
6668;BME280;3370;47.712;9.082;2023-03-25T01:38:38;96648.38;;;7.01;93.74
6668;BME280;3370;47.712;9.082;2023-03-25T01:41:06;96643.13;;;7.06;92.65
6668;BME280;3370;47.712;9.082;2023-03-25T01:43:32;96642.16;;;7.08;91.02
6668;BME280;3370;47.712;9.082;2023-03-25T01:45:59;96637.28;;;7.02;90.81
6668;BME280;3370;47.712;9.082;2023-03-25T01:48:38;96632.53;;;7.15;87.87
6668;BME280;3370;47.712;9.082;2023-03-25T01:51:19;96632.94;;;7.04;90.80
6668;BME280;3370;47.712;9.082;2023-03-25T01:53:47;96635.03;;;7.17;88.71
6668;BME280;3370;47.712;9.082;2023-03-25T01:56:21;96630.81;;;7.16;87.04
6668;BME280;3370;47.712;9.082;2023-03-25T01:58:50;96628.19;;;7.17;86.98
6668;BME280;3370;47.712;9.082;2023-03-25T02:01:20;96626.09;;;7.05;89.56
6668;BME280;3370;47.712;9.082;2023-03-25T02:03:49;96621.28;;;7.19;86.83
6668;BME280;3370;47.712;9.082;2023-03-25T02:06:24;96626.53;;;7.16;87.59
6668;BME280;3370;47.712;9.082;2023-03-25T02:08:54;96632.91;;;7.28;85.05
6668;BME280;3370;47.712;9.082;2023-03-25T02:11:22;96623.50;;;7.28;86.73
6668;BME280;3370;47.712;9.082;2023-03-25T02:13:54;96628.03;;;7.22;87.42
6668;BME280;3370;47.712;9.082;2023-03-25T02:16:48;96637.50;;;7.20;87.05
6668;BME280;3370;47.712;9.082;2023-03-25T02:28:42;96637.59;;;7.17;87.95
6668;BME280;3370;47.712;9.082;2023-03-25T02:34:55;96629.94;;;7.17;87.51
6668;BME280;3370;47.712;9.082;2023-03-25T02:37:52;96619.09;;;7.10;87.37
6668;BME280;3370;47.712;9.082;2023-03-25T02:40:46;96618.72;;;7.19;86.67
6668;BME280;3370;47.712;9.082;2023-03-25T02:43:43;96618.94;;;7.15;87.26
6668;BME280;3370;47.712;9.082;2023-03-25T02:46:15;96626.72;;;7.12;89.41
6668;BME280;3370;47.712;9.082;2023-03-25T02:51:23;96635.50;;;7.04;89.71
6668;BME280;3370;47.712;9.082;2023-03-25T02:53:51;96630.38;;;7.04;90.74
6668;BME280;3370;47.712;9.082;2023-03-25T02:56:22;96619.50;;;6.99;89.72
6668;BME280;3370;47.712;9.082;2023-03-25T02:58:52;96619.63;;;6.96;88.97
6668;BME280;3370;47.712;9.082;2023-03-25T03:01:23;96620.75;;;6.89;90.66
6668;BME280;3370;47.712;9.082;2023-03-25T03:03:55;96628.47;;;6.87;91.32
6668;BME280;3370;47.712;9.082;2023-03-25T03:06:21;96633.63;;;6.86;90.86
6668;BME280;3370;47.712;9.082;2023-03-25T03:08:52;96638.44;;;6.94;90.57
6668;BME280;3370;47.712;9.082;2023-03-25T03:11:32;96635.75;;;6.98;91.68
6668;BME280;3370;47.712;9.082;2023-03-25T03:17:13;96641.19;;;6.89;90.45
6668;BME280;3370;47.712;9.082;2023-03-25T03:23:05;96642.63;;;6.96;91.79
6668;BME280;3370;47.712;9.082;2023-03-25T03:26:07;96660.53;;;6.96;92.94
6668;BME280;3370;47.712;9.082;2023-03-25T03:28:46;96688.84;;;6.90;95.11
6668;BME280;3370;47.712;9.082;2023-03-25T03:31:25;96710.19;;;6.65;99.49
6668;BME280;3370;47.712;9.082;2023-03-25T03:33:59;96783.16;;;5.92;100.00
6668;BME280;3370;47.712;9.082;2023-03-25T03:36:39;96738.22;;;4.69;100.00
6668;BME280;3370;47.712;9.082;2023-03-25T03:39:34;96705.69;;;4.48;100.00
6668;BME280;3370;47.712;9.082;2023-03-25T03:44:46;96740.09;;;4.64;100.00
6668;BME280;3370;47.712;9.082;2023-03-25T03:47:29;96750.91;;;4.71;100.00
6668;BME280;3370;47.712;9.082;2023-03-25T03:50:06;96754.75;;;4.86;100.00
6668;BME280;3370;47.712;9.082;2023-03-25T03:52:44;96756.22;;;4.94;100.00
6668;BME280;3370;47.712;9.082;2023-03-25T03:55:24;96769.41;;;5.10;100.00
6668;BME280;3370;47.712;9.082;2023-03-25T03:58:01;96776.78;;;5.19;100.00
6668;BME280;3370;47.712;9.082;2023-03-25T04:00:50;96775.81;;;5.24;100.00
6668;BME280;3370;47.712;9.082;2023-03-25T04:03:28;96766.53;;;5.21;100.00
6668;BME280;3370;47.712;9.082;2023-03-25T04:06:28;96775.03;;;5.22;100.00
6668;BME280;3370;47.712;9.082;2023-03-25T04:09:38;96762.47;;;5.15;100.00
6668;BME280;3370;47.712;9.082;2023-03-25T04:12:13;96772.13;;;5.04;100.00
6668;BME280;3370;47.712;9.082;2023-03-25T04:14:40;96778.09;;;5.03;100.00
6668;BME280;3370;47.712;9.082;2023-03-25T04:17:06;96759.63;;;4.95;100.00
6668;BME280;3370;47.712;9.082;2023-03-25T04:19:32;96756.97;;;4.98;100.00
6668;BME280;3370;47.712;9.082;2023-03-25T04:22:03;96761.53;;;4.87;100.00
6668;BME280;3370;47.712;9.082;2023-03-25T04:24:30;96768.47;;;4.82;100.00
6668;BME280;3370;47.712;9.082;2023-03-25T04:27:00;96762.03;;;4.68;100.00
6668;BME280;3370;47.712;9.082;2023-03-25T04:29:32;96737.22;;;4.75;100.00
6668;BME280;3370;47.712;9.082;2023-03-25T04:31:59;96737.06;;;4.81;100.00
6668;BME280;3370;47.712;9.082;2023-03-25T04:34:26;96764.13;;;4.85;100.00
6668;BME280;3370;47.712;9.082;2023-03-25T04:36:53;96777.22;;;4.71;100.00
6668;BME280;3370;47.712;9.082;2023-03-25T04:39:20;96772.84;;;4.76;100.00
6668;BME280;3370;47.712;9.082;2023-03-25T04:41:51;96766.88;;;4.77;100.00
6668;BME280;3370;47.712;9.082;2023-03-25T04:44:21;96769.69;;;4.68;100.00
6668;BME280;3370;47.712;9.082;2023-03-25T04:46:50;96763.38;;;4.82;100.00
6668;BME280;3370;47.712;9.082;2023-03-25T04:49:20;96766.97;;;4.74;100.00
6668;BME280;3370;47.712;9.082;2023-03-25T04:51:48;96763.38;;;4.82;100.00
6668;BME280;3370;47.712;9.082;2023-03-25T04:54:17;96761.72;;;4.80;100.00
6668;BME280;3370;47.712;9.082;2023-03-25T04:56:43;96757.25;;;4.89;100.00
6668;BME280;3370;47.712;9.082;2023-03-25T04:59:08;96760.03;;;4.79;100.00
6668;BME280;3370;47.712;9.082;2023-03-25T05:01:36;96765.84;;;4.85;100.00
6668;BME280;3370;47.712;9.082;2023-03-25T05:04:08;96761.72;;;4.80;100.00
6668;BME280;3370;47.712;9.082;2023-03-25T05:06:47;96765.38;;;4.70;100.00
6668;BME280;3370;47.712;9.082;2023-03-25T05:09:19;96760.81;;;4.82;100.00
6668;BME280;3370;47.712;9.082;2023-03-25T05:11:50;96757.69;;;4.72;100.00
6668;BME280;3370;47.712;9.082;2023-03-25T05:14:19;96753.34;;;4.75;100.00
6668;BME280;3370;47.712;9.082;2023-03-25T05:16:46;96759.22;;;4.79;100.00
6668;BME280;3370;47.712;9.082;2023-03-25T05:19:14;96758.22;;;4.85;100.00
6668;BME280;3370;47.712;9.082;2023-03-25T05:21:40;96778.84;;;4.75;100.00
6668;BME280;3370;47.712;9.082;2023-03-25T05:24:11;96782.25;;;4.74;100.00
6668;BME280;3370;47.712;9.082;2023-03-25T05:26:40;96779.06;;;4.66;100.00
6668;BME280;3370;47.712;9.082;2023-03-25T05:29:12;96786.00;;;4.61;100.00
6668;BME280;3370;47.712;9.082;2023-03-25T05:31:43;96795.94;;;4.70;100.00
6668;BME280;3370;47.712;9.082;2023-03-25T05:34:10;96786.84;;;4.60;100.00
6668;BME280;3370;47.712;9.082;2023-03-25T05:36:36;96791.13;;;4.59;100.00
6668;BME280;3370;47.712;9.082;2023-03-25T05:39:03;96789.41;;;4.60;100.00
6668;BME280;3370;47.712;9.082;2023-03-25T05:41:30;96792.13;;;4.54;100.00
6668;BME280;3370;47.712;9.082;2023-03-25T05:44:05;96772.53;;;4.56;100.00
6668;BME280;3370;47.712;9.082;2023-03-25T05:46:31;96766.66;;;4.54;100.00
6668;BME280;3370;47.712;9.082;2023-03-25T05:48:57;96777.09;;;4.43;100.00
6668;BME280;3370;47.712;9.082;2023-03-25T05:51:26;96780.50;;;4.42;100.00
6668;BME280;3370;47.712;9.082;2023-03-25T05:53:52;96789.13;;;4.36;100.00
6668;BME280;3370;47.712;9.082;2023-03-25T05:56:21;96789.16;;;4.35;100.00
6668;BME280;3370;47.712;9.082;2023-03-25T05:58:49;96790.06;;;4.34;100.00
6668;BME280;3370;47.712;9.082;2023-03-25T06:01:17;96781.50;;;4.36;100.00
6668;BME280;3370;47.712;9.082;2023-03-25T06:03:44;96785.00;;;4.32;100.00
6668;BME280;3370;47.712;9.082;2023-03-25T06:06:14;96792.47;;;4.38;100.00
6668;BME280;3370;47.712;9.082;2023-03-25T06:08:49;96809.25;;;4.47;100.00
6668;BME280;3370;47.712;9.082;2023-03-25T06:11:16;96823.28;;;4.64;100.00
6668;BME280;3370;47.712;9.082;2023-03-25T06:13:45;96814.09;;;4.56;100.00
6668;BME280;3370;47.712;9.082;2023-03-25T06:16:20;96803.16;;;4.53;100.00
6668;BME280;3370;47.712;9.082;2023-03-25T06:18:48;96799.59;;;4.60;100.00
6668;BME280;3370;47.712;9.082;2023-03-25T06:21:22;96811.69;;;4.52;100.00
6668;BME280;3370;47.712;9.082;2023-03-25T06:23:48;96808.94;;;4.59;100.00
6668;BME280;3370;47.712;9.082;2023-03-25T06:26:19;96813.22;;;4.59;100.00
6668;BME280;3370;47.712;9.082;2023-03-25T06:28:46;96816.16;;;4.76;100.00
6668;BME280;3370;47.712;9.082;2023-03-25T06:31:17;96807.47;;;4.84;100.00
6668;BME280;3370;47.712;9.082;2023-03-25T06:33:46;96802.31;;;4.87;100.00
6668;BME280;3370;47.712;9.082;2023-03-25T06:36:15;96796.13;;;4.95;100.00
6668;BME280;3370;47.712;9.082;2023-03-25T06:38:45;96795.72;;;5.11;100.00
6668;BME280;3370;47.712;9.082;2023-03-25T06:41:11;96800.72;;;5.14;100.00
6668;BME280;3370;47.712;9.082;2023-03-25T06:43:38;96805.47;;;5.28;100.00
6668;BME280;3370;47.712;9.082;2023-03-25T06:46:06;96798.56;;;5.31;100.00
6668;BME280;3370;47.712;9.082;2023-03-25T06:48:32;96795.78;;;5.39;100.00
6668;BME280;3370;47.712;9.082;2023-03-25T06:50:58;96787.00;;;5.49;100.00
6668;BME280;3370;47.712;9.082;2023-03-25T06:53:24;96790.06;;;5.61;100.00
6668;BME280;3370;47.712;9.082;2023-03-25T06:55:50;96793.41;;;5.63;100.00
6668;BME280;3370;47.712;9.082;2023-03-25T06:58:16;96788.06;;;5.70;100.00
6668;BME280;3370;47.712;9.082;2023-03-25T07:00:42;96785.69;;;5.92;100.00
6668;BME280;3370;47.712;9.082;2023-03-25T07:03:09;96784.38;;;6.09;100.00
6668;BME280;3370;47.712;9.082;2023-03-25T07:05:35;96783.28;;;6.16;100.00
6668;BME280;3370;47.712;9.082;2023-03-25T07:08:01;96781.75;;;6.39;100.00
6668;BME280;3370;47.712;9.082;2023-03-25T07:10:27;96787.63;;;6.41;100.00
6668;BME280;3370;47.712;9.082;2023-03-25T07:12:52;96796.72;;;6.49;100.00
6668;BME280;3370;47.712;9.082;2023-03-25T07:15:18;96787.31;;;6.50;97.56
6668;BME280;3370;47.712;9.082;2023-03-25T07:17:44;96795.94;;;6.47;99.24
6668;BME280;3370;47.712;9.082;2023-03-25T07:20:13;96797.06;;;6.12;98.59
6668;BME280;3370;47.712;9.082;2023-03-25T07:22:40;96807.72;;;6.25;100.00
6668;BME280;3370;47.712;9.082;2023-03-25T07:25:06;96792.81;;;6.38;100.00
6668;BME280;3370;47.712;9.082;2023-03-25T07:27:32;96809.19;;;6.32;100.00
6668;BME280;3370;47.712;9.082;2023-03-25T07:29:57;96792.03;;;6.62;99.30
6668;BME280;3370;47.712;9.082;2023-03-25T07:32:23;96801.44;;;6.62;97.64
6668;BME280;3370;47.712;9.082;2023-03-25T07:34:49;96797.25;;;6.59;96.85
6668;BME280;3370;47.712;9.082;2023-03-25T07:37:15;96801.47;;;6.60;96.79
6668;BME280;3370;47.712;9.082;2023-03-25T07:39:41;96790.25;;;6.64;98.54
6668;BME280;3370;47.712;9.082;2023-03-25T07:42:07;96790.22;;;6.66;97.02
6668;BME280;3370;47.712;9.082;2023-03-25T07:44:32;96790.22;;;6.66;96.74
6668;BME280;3370;47.712;9.082;2023-03-25T07:46:58;96795.09;;;6.72;95.75
6668;BME280;3370;47.712;9.082;2023-03-25T07:49:24;96792.88;;;6.88;98.42
6668;BME280;3370;47.712;9.082;2023-03-25T07:51:50;96798.28;;;6.79;92.35
6668;BME280;3370;47.712;9.082;2023-03-25T07:54:16;96792.66;;;6.69;93.75
6668;BME280;3370;47.712;9.082;2023-03-25T07:56:42;96795.06;;;6.74;96.11
6668;BME280;3370;47.712;9.082;2023-03-25T07:59:08;96798.19;;;6.82;94.96
6668;BME280;3370;47.712;9.082;2023-03-25T08:01:34;96795.66;;;6.82;95.66
6668;BME280;3370;47.712;9.082;2023-03-25T08:04:00;96801.53;;;6.84;92.64
6668;BME280;3370;47.712;9.082;2023-03-25T08:06:25;96789.44;;;6.89;94.30
6668;BME280;3370;47.712;9.082;2023-03-25T08:08:51;96788.34;;;6.96;95.58
6668;BME280;3370;47.712;9.082;2023-03-25T08:11:17;96782.94;;;7.04;96.22
6668;BME280;3370;47.712;9.082;2023-03-25T08:13:43;96788.50;;;7.15;96.82
6668;BME280;3370;47.712;9.082;2023-03-25T08:16:11;96794.63;;;7.11;92.86
6668;BME280;3370;47.712;9.082;2023-03-25T08:18:38;96789.66;;;7.06;92.34
6668;BME280;3370;47.712;9.082;2023-03-25T08:21:04;96777.31;;;7.18;92.30
6668;BME280;3370;47.712;9.082;2023-03-25T08:23:30;96775.72;;;7.15;95.33
6668;BME280;3370;47.712;9.082;2023-03-25T08:26:01;96774.66;;;7.21;94.30
6668;BME280;3370;47.712;9.082;2023-03-25T08:28:27;96791.03;;;7.17;90.56
6668;BME280;3370;47.712;9.082;2023-03-25T08:30:53;96791.53;;;7.01;90.92
6668;BME280;3370;47.712;9.082;2023-03-25T08:33:24;96788.88;;;7.04;92.28
6668;BME280;3370;47.712;9.082;2023-03-25T08:36:05;96788.13;;;7.26;94.83
6668;BME280;3370;47.712;9.082;2023-03-25T08:38:31;96796.81;;;7.22;89.49
6668;BME280;3370;47.712;9.082;2023-03-25T08:41:00;96784.34;;;7.13;86.42
6668;BME280;3370;47.712;9.082;2023-03-25T08:43:26;96793.03;;;7.07;92.97
6668;BME280;3370;47.712;9.082;2023-03-25T08:45:52;96798.81;;;6.88;94.56
6668;BME280;3370;47.712;9.082;2023-03-25T08:48:18;96810.38;;;6.74;94.37
6668;BME280;3370;47.712;9.082;2023-03-25T08:50:44;96810.25;;;6.51;98.69
6668;BME280;3370;47.712;9.082;2023-03-25T08:53:10;96813.75;;;6.49;100.00
6668;BME280;3370;47.712;9.082;2023-03-25T08:55:36;96814.94;;;6.39;100.00
6668;BME280;3370;47.712;9.082;2023-03-25T08:58:03;96828.97;;;6.25;100.00
6668;BME280;3370;47.712;9.082;2023-03-25T09:00:31;96821.19;;;6.02;100.00
6668;BME280;3370;47.712;9.082;2023-03-25T09:02:57;96819.66;;;5.96;100.00
6668;BME280;3370;47.712;9.082;2023-03-25T09:05:24;96830.22;;;6.12;100.00
6668;BME280;3370;47.712;9.082;2023-03-25T09:07:51;96830.22;;;6.12;100.00
6668;BME280;3370;47.712;9.082;2023-03-25T09:10:17;96817.81;;;6.01;100.00
6668;BME280;3370;47.712;9.082;2023-03-25T09:12:43;96826.47;;;5.95;100.00
6668;BME280;3370;47.712;9.082;2023-03-25T09:15:10;96826.84;;;6.11;100.00
6668;BME280;3370;47.712;9.082;2023-03-25T09:17:37;96827.41;;;6.21;100.00
6668;BME280;3370;47.712;9.082;2023-03-25T09:20:04;96822.50;;;6.15;100.00
6668;BME280;3370;47.712;9.082;2023-03-25T09:22:36;96821.13;;;6.03;100.00
6668;BME280;3370;47.712;9.082;2023-03-25T09:25:03;96824.34;;;6.10;100.00
6668;BME280;3370;47.712;9.082;2023-03-25T09:27:29;96822.53;;;6.13;100.00
6668;BME280;3370;47.712;9.082;2023-03-25T09:29:55;96823.59;;;6.35;100.00
6668;BME280;3370;47.712;9.082;2023-03-25T09:32:21;96818.88;;;6.22;100.00
6668;BME280;3370;47.712;9.082;2023-03-25T09:34:47;96821.53;;;6.18;100.00
6668;BME280;3370;47.712;9.082;2023-03-25T09:37:13;96816.19;;;6.25;100.00
6668;BME280;3370;47.712;9.082;2023-03-25T09:39:39;96801.22;;;6.14;100.00
6668;BME280;3370;47.712;9.082;2023-03-25T09:45:41;96802.25;;;6.09;100.00
6668;BME280;3370;47.712;9.082;2023-03-25T09:48:36;96799.03;;;6.04;100.00
6668;BME280;3370;47.712;9.082;2023-03-25T09:51:18;96798.81;;;6.10;100.00
6668;BME280;3370;47.712;9.082;2023-03-25T09:56:22;96811.09;;;5.99;100.00
6668;BME280;3370;47.712;9.082;2023-03-25T09:58:52;96806.13;;;5.92;100.00
6668;BME280;3370;47.712;9.082;2023-03-25T10:04:30;96804.75;;;5.82;100.00
6668;BME280;3370;47.712;9.082;2023-03-25T10:12:52;96796.09;;;5.86;100.00
6668;BME280;3370;47.712;9.082;2023-03-25T10:15:45;96792.50;;;5.93;100.00
6668;BME280;3370;47.712;9.082;2023-03-25T10:21:52;96790.03;;;5.90;100.00
6668;BME280;3370;47.712;9.082;2023-03-25T10:24:30;96785.56;;;5.99;100.00
6668;BME280;3370;47.712;9.082;2023-03-25T10:27:05;96800.50;;;5.81;100.00
6668;BME280;3370;47.712;9.082;2023-03-25T10:29:58;96799.25;;;5.66;100.00
6668;BME280;3370;47.712;9.082;2023-03-25T10:32:38;96796.66;;;5.68;100.00
6668;BME280;3370;47.712;9.082;2023-03-25T10:35:17;96808.34;;;5.75;100.00
6668;BME280;3370;47.712;9.082;2023-03-25T10:37:46;96812.31;;;5.55;100.00
6668;BME280;3370;47.712;9.082;2023-03-25T10:43:32;96804.34;;;5.66;100.00
6668;BME280;3370;47.712;9.082;2023-03-25T10:47:25;96813.41;;;5.47;100.00
6668;BME280;3370;47.712;9.082;2023-03-25T10:49:23;96818.22;;;5.28;100.00
6668;BME280;3370;47.712;9.082;2023-03-25T10:51:51;96822.56;;;5.24;100.00
6668;BME280;3370;47.712;9.082;2023-03-25T10:54:26;96826.78;;;5.24;100.00
6668;BME280;3370;47.712;9.082;2023-03-25T10:56:56;96822.44;;;5.27;100.00
6668;BME280;3370;47.712;9.082;2023-03-25T11:01:55;96832.16;;;5.14;100.00
6668;BME280;3370;47.712;9.082;2023-03-25T11:04:28;96840.69;;;5.13;100.00
6668;BME280;3370;47.712;9.082;2023-03-25T11:06:57;96842.59;;;5.05;100.00
6668;BME280;3370;47.712;9.082;2023-03-25T11:09:29;96838.09;;;5.15;100.00
6668;BME280;3370;47.712;9.082;2023-03-25T11:12:02;96824.97;;;5.29;100.00
6668;BME280;3370;47.712;9.082;2023-03-25T11:14:29;96819.00;;;5.60;100.00
6668;BME280;3370;47.712;9.082;2023-03-25T11:17:09;96822.44;;;5.59;100.00
6668;BME280;3370;47.712;9.082;2023-03-25T11:22:25;96827.53;;;5.59;100.00
6668;BME280;3370;47.712;9.082;2023-03-25T11:25:27;96834.13;;;5.66;100.00
6668;BME280;3370;47.712;9.082;2023-03-25T11:28:01;96835.47;;;6.36;100.00
6668;BME280;3370;47.712;9.082;2023-03-25T11:30:28;96839.56;;;6.93;100.00
6668;BME280;3370;47.712;9.082;2023-03-25T11:33:10;96837.00;;;6.93;100.00
6668;BME280;3370;47.712;9.082;2023-03-25T11:35:41;96827.19;;;7.06;100.00
6668;BME280;3370;47.712;9.082;2023-03-25T11:38:28;96826.25;;;7.08;100.00
6668;BME280;3370;47.712;9.082;2023-03-25T11:40:57;96825.16;;;7.39;100.00
6668;BME280;3370;47.712;9.082;2023-03-25T11:43:28;96828.38;;;7.21;100.00
6668;BME280;3370;47.712;9.082;2023-03-25T11:45:57;96824.44;;;7.36;100.00
6668;BME280;3370;47.712;9.082;2023-03-25T11:48:37;96832.81;;;7.16;100.00
6668;BME280;3370;47.712;9.082;2023-03-25T11:51:12;96820.38;;;7.54;100.00
6668;BME280;3370;47.712;9.082;2023-03-25T11:53:48;96819.06;;;7.43;100.00
6668;BME280;3370;47.712;9.082;2023-03-25T11:56:20;96814.88;;;7.86;100.00
6668;BME280;3370;47.712;9.082;2023-03-25T11:58:49;96808.88;;;8.54;96.64
6668;BME280;3370;47.712;9.082;2023-03-25T12:01:28;96795.50;;;8.68;92.46
6668;BME280;3370;47.712;9.082;2023-03-25T12:04:19;96790.53;;;9.04;91.67
6668;BME280;3370;47.712;9.082;2023-03-25T12:07:07;96802.19;;;9.32;94.17
6668;BME280;3370;47.712;9.082;2023-03-25T12:09:34;96809.63;;;9.76;94.80
6668;BME280;3370;47.712;9.082;2023-03-25T12:13:01;96794.09;;;9.79;92.38
6668;BME280;3370;47.712;9.082;2023-03-25T12:16:16;96786.28;;;9.81;85.73
6668;BME280;3370;47.712;9.082;2023-03-25T12:24:54;96765.06;;;10.67;78.77
6668;BME280;3370;47.712;9.082;2023-03-25T12:33:36;96757.84;;;10.91;81.67
6668;BME280;3370;47.712;9.082;2023-03-25T12:54:28;96727.69;;;12.53;65.89
6668;BME280;3370;47.712;9.082;2023-03-25T12:57:46;96737.72;;;12.27;72.11
6668;BME280;3370;47.712;9.082;2023-03-25T13:00:44;96734.53;;;12.07;68.03
6668;BME280;3370;47.712;9.082;2023-03-25T13:03:39;96725.72;;;12.12;68.80
6668;BME280;3370;47.712;9.082;2023-03-25T13:06:27;96722.97;;;11.51;71.75
6668;BME280;3370;47.712;9.082;2023-03-25T13:09:22;96728.63;;;11.42;71.24
6668;BME280;3370;47.712;9.082;2023-03-25T13:12:10;96719.81;;;10.81;74.65
6668;BME280;3370;47.712;9.082;2023-03-25T13:17:43;96717.50;;;11.25;70.58
6668;BME280;3370;47.712;9.082;2023-03-25T13:20:11;96717.59;;;10.90;74.69
6668;BME280;3370;47.712;9.082;2023-03-25T13:22:47;96704.19;;;10.68;73.95
6668;BME280;3370;47.712;9.082;2023-03-25T13:25:40;96703.19;;;10.53;74.20
6668;BME280;3370;47.712;9.082;2023-03-25T13:28:16;96702.38;;;10.70;77.01
6668;BME280;3370;47.712;9.082;2023-03-25T13:30:50;96695.50;;;10.53;75.94
6668;BME280;3370;47.712;9.082;2023-03-25T13:33:23;96700.66;;;10.35;75.41
6668;BME280;3370;47.712;9.082;2023-03-25T13:36:13;96710.97;;;10.16;75.38
6668;BME280;3370;47.712;9.082;2023-03-25T13:38:55;96711.97;;;10.31;78.07
6668;BME280;3370;47.712;9.082;2023-03-25T13:41:43;96710.56;;;10.61;76.50
6668;BME280;3370;47.712;9.082;2023-03-25T13:44:31;96693.59;;;10.57;75.21
6668;BME280;3370;47.712;9.082;2023-03-25T13:47:38;96704.72;;;10.90;75.26
6668;BME280;3370;47.712;9.082;2023-03-25T13:50:23;96695.56;;;11.02;76.01
6668;BME280;3370;47.712;9.082;2023-03-25T13:52:59;96703.84;;;11.07;72.13
6668;BME280;3370;47.712;9.082;2023-03-25T13:55:36;96697.91;;;10.73;72.98
6668;BME280;3370;47.712;9.082;2023-03-25T13:58:20;96694.28;;;10.60;73.84
6668;BME280;3370;47.712;9.082;2023-03-25T14:04:23;96695.41;;;10.20;75.40
6668;BME280;3370;47.712;9.082;2023-03-25T14:10:27;96711.19;;;10.29;77.32
6668;BME280;3370;47.712;9.082;2023-03-25T14:13:08;96701.28;;;10.41;74.23
6668;BME280;3370;47.712;9.082;2023-03-25T14:15:43;96697.38;;;10.49;73.24
6668;BME280;3370;47.712;9.082;2023-03-25T14:18:19;96698.31;;;10.31;75.66
6668;BME280;3370;47.712;9.082;2023-03-25T14:20:45;96698.59;;;10.25;71.78
6668;BME280;3370;47.712;9.082;2023-03-25T14:23:16;96707.19;;;10.24;72.16
6668;BME280;3370;47.712;9.082;2023-03-25T14:25:53;96704.19;;;10.15;72.66
6668;BME280;3370;47.712;9.082;2023-03-25T14:28:41;96715.66;;;10.26;73.08
6668;BME280;3370;47.712;9.082;2023-03-25T14:39:54;96710.47;;;10.10;69.05
6668;BME280;3370;47.712;9.082;2023-03-25T14:44:39;96717.66;;;10.21;69.74
6668;BME280;3370;47.712;9.082;2023-03-25T14:52:59;96720.69;;;9.56;73.36
6668;BME280;3370;47.712;9.082;2023-03-25T14:55:40;96737.41;;;9.27;77.00
6668;BME280;3370;47.712;9.082;2023-03-25T14:58:25;96742.03;;;8.99;79.63
6668;BME280;3370;47.712;9.082;2023-03-25T15:01:03;96729.94;;;8.82;81.42
6668;BME280;3370;47.712;9.082;2023-03-25T15:03:36;96738.59;;;8.80;81.72
6668;BME280;3370;47.712;9.082;2023-03-25T15:06:06;96750.97;;;8.70;82.32
6668;BME280;3370;47.712;9.082;2023-03-25T15:08:39;96734.97;;;8.65;81.64
6668;BME280;3370;47.712;9.082;2023-03-25T15:11:23;96735.78;;;8.66;82.16
6668;BME280;3370;47.712;9.082;2023-03-25T15:13:56;96757.16;;;8.64;79.51
6668;BME280;3370;47.712;9.082;2023-03-25T15:16:35;96746.66;;;8.91;79.30
6668;BME280;3370;47.712;9.082;2023-03-25T15:19:05;96746.16;;;9.42;81.47
6668;BME280;3370;47.712;9.082;2023-03-25T15:24:33;96749.09;;;9.89;77.20
6668;BME280;3370;47.712;9.082;2023-03-25T15:27:47;96754.16;;;9.91;75.37
6668;BME280;3370;47.712;9.082;2023-03-25T15:33:54;96728.22;;;10.49;73.77
6668;BME280;3370;47.712;9.082;2023-03-25T15:37:02;96722.63;;;10.59;73.83
6668;BME280;3370;47.712;9.082;2023-03-25T15:42:48;96723.47;;;10.42;71.03
6668;BME280;3370;47.712;9.082;2023-03-25T15:45:35;96729.56;;;10.22;72.05
6668;BME280;3370;47.712;9.082;2023-03-25T15:48:53;96731.84;;;10.10;72.17
6668;BME280;3370;47.712;9.082;2023-03-25T15:52:33;96739.00;;;9.67;74.66
6668;BME280;3370;47.712;9.082;2023-03-25T15:55:06;96735.53;;;9.49;74.77
6668;BME280;3370;47.712;9.082;2023-03-25T15:57:52;96744.69;;;9.36;78.14
6668;BME280;3370;47.712;9.082;2023-03-25T16:00:31;96740.16;;;9.22;79.90